createdAt,value
2023-04-08T00:00:49.597Z,99.90
2023-04-08T00:03:16.867Z,99.90
2023-04-08T00:05:43.983Z,99.90
2023-04-08T00:08:10.955Z,99.90
2023-04-08T00:10:37.927Z,99.90
2023-04-08T00:13:05.189Z,99.90
2023-04-08T00:15:32.151Z,99.90
2023-04-08T00:17:59.147Z,99.90
2023-04-08T00:20:26.247Z,99.90
2023-04-08T00:22:53.324Z,99.90
2023-04-08T00:25:21.126Z,99.90
2023-04-08T00:27:49.265Z,99.90
2023-04-08T00:30:16.502Z,99.90
2023-04-08T00:32:43.857Z,99.90
2023-04-08T00:35:10.821Z,99.90
2023-04-08T00:37:37.751Z,99.90
2023-04-08T00:40:05.654Z,99.90
2023-04-08T00:42:32.565Z,99.90
2023-04-08T00:44:59.495Z,99.90
2023-04-08T00:47:26.705Z,99.90
2023-04-08T00:49:53.775Z,99.90
2023-04-08T00:52:20.751Z,99.90
2023-04-08T00:54:47.709Z,99.90
2023-04-08T00:57:14.723Z,99.90
2023-04-08T00:59:42.665Z,99.90
2023-04-08T01:02:15.662Z,99.90
2023-04-08T01:05:05.604Z,99.90
2023-04-08T01:07:46.994Z,99.90
2023-04-08T01:10:21.308Z,99.90
2023-04-08T01:12:57.176Z,99.90
2023-04-08T01:15:26.944Z,99.90
2023-04-08T01:17:56.786Z,99.90
2023-04-08T01:20:28.029Z,99.90
2023-04-08T01:23:00.951Z,99.90
2023-04-08T01:25:32.602Z,99.90
2023-04-08T01:28:06.386Z,99.90
2023-04-08T01:30:36.002Z,99.90
2023-04-08T01:33:04.291Z,99.90
2023-04-08T01:35:32.546Z,99.90
2023-04-08T01:38:00.637Z,99.90
2023-04-08T01:40:27.802Z,99.90
2023-04-08T01:42:57.111Z,99.90
2023-04-08T01:45:25.127Z,99.90
2023-04-08T01:47:53.374Z,99.90
2023-04-08T01:50:21.462Z,99.90
2023-04-08T01:52:50.294Z,99.90
2023-04-08T01:55:18.060Z,99.90
2023-04-08T01:57:53.467Z,99.90
2023-04-08T02:00:25.096Z,99.90
2023-04-08T02:02:53.550Z,99.90
2023-04-08T02:05:20.823Z,99.90
2023-04-08T03:09:13.959Z,99.90
2023-04-08T03:11:41.029Z,99.90
2023-04-08T03:14:07.945Z,99.90
2023-04-08T03:16:34.892Z,99.90
2023-04-08T03:19:01.997Z,99.90
2023-04-08T03:21:31.847Z,99.90
2023-04-08T03:23:58.829Z,99.90
2023-04-08T03:26:27.332Z,99.90
2023-04-08T03:28:54.388Z,99.90
2023-04-08T03:31:21.455Z,99.90
2023-04-08T03:33:48.521Z,99.90
2023-04-08T03:36:15.539Z,99.90
2023-04-08T03:38:42.461Z,99.90
2023-04-08T03:41:09.488Z,99.90
2023-04-08T03:43:37.967Z,99.90
2023-04-08T03:46:06.439Z,99.90
2023-04-08T03:48:33.527Z,99.90
2023-04-08T03:51:00.487Z,99.90
2023-04-08T03:53:29.345Z,99.90
2023-04-08T03:55:57.172Z,99.90
2023-04-08T03:58:24.079Z,99.90
2023-04-08T04:00:51.596Z,99.90
2023-04-08T04:03:18.721Z,99.90
2023-04-08T04:05:45.881Z,99.90
2023-04-08T04:08:12.974Z,99.90
2023-04-08T04:10:39.928Z,99.90
2023-04-08T04:13:06.974Z,99.90
2023-04-08T04:15:34.087Z,99.90
2023-04-08T04:18:01.027Z,99.90
2023-04-08T04:20:30.334Z,99.90
2023-04-08T04:22:57.328Z,99.90
2023-04-08T04:25:24.670Z,99.90
2023-04-08T04:27:51.652Z,99.90
2023-04-08T04:30:19.665Z,99.90
2023-04-08T04:32:46.732Z,99.90
2023-04-08T04:35:13.777Z,99.90
2023-04-08T04:37:40.806Z,99.90
2023-04-08T04:40:08.142Z,99.90
2023-04-08T04:42:35.110Z,99.90
2023-04-08T04:45:02.045Z,99.90
2023-04-08T04:47:29.234Z,99.90
2023-04-08T04:49:56.231Z,99.90
2023-04-08T04:52:23.149Z,99.90
2023-04-08T04:54:50.091Z,99.90
2023-04-08T04:57:17.014Z,99.90
2023-04-08T04:59:43.920Z,99.90
2023-04-08T05:02:11.022Z,99.90
2023-04-08T05:04:38.011Z,99.90
2023-04-08T05:07:05.015Z,99.90
2023-04-08T05:09:31.991Z,99.90
2023-04-08T05:11:58.929Z,99.90
2023-04-08T05:14:26.213Z,99.90
2023-04-08T05:16:53.187Z,99.90
2023-04-08T05:19:20.107Z,99.90
2023-04-08T05:21:47.118Z,99.90
2023-04-08T05:24:14.110Z,99.90
2023-04-08T05:26:41.288Z,99.90
2023-04-08T05:29:08.395Z,99.90
2023-04-08T05:31:35.672Z,99.90
2023-04-08T05:34:02.765Z,99.90
2023-04-08T05:36:29.812Z,99.90
2023-04-08T05:38:56.741Z,99.90
2023-04-08T05:41:23.649Z,99.90
2023-04-08T05:43:50.620Z,99.90
2023-04-08T05:46:17.616Z,99.90
2023-04-08T05:48:44.627Z,99.90
2023-04-08T05:51:15.571Z,99.90
2023-04-08T05:53:42.438Z,99.50
2023-04-08T05:56:09.394Z,98.00
2023-04-08T05:58:36.383Z,97.10
2023-04-08T06:01:03.679Z,96.90
2023-04-08T06:03:31.412Z,97.40
2023-04-08T06:05:58.474Z,98.80
2023-04-08T06:08:25.679Z,97.30
2023-04-08T06:10:52.687Z,95.40
2023-04-08T06:13:21.167Z,97.00
2023-04-08T06:15:51.567Z,98.30
2023-04-08T06:18:18.501Z,98.20
2023-04-08T06:20:46.154Z,97.60
2023-04-08T06:23:13.245Z,98.90
2023-04-08T06:25:40.257Z,97.30
2023-04-08T06:28:07.236Z,98.00
2023-04-08T06:30:34.242Z,94.60
2023-04-08T06:33:01.341Z,93.50
2023-04-08T06:35:28.578Z,93.80
2023-04-08T06:37:55.525Z,92.90
2023-04-08T06:40:22.464Z,92.50
2023-04-08T06:42:49.807Z,94.20
2023-04-08T06:45:16.738Z,92.20
2023-04-08T06:47:43.651Z,90.20
2023-04-08T06:50:10.905Z,87.70
2023-04-08T06:52:37.817Z,85.70
2023-04-08T06:55:05.200Z,89.60
2023-04-08T06:57:32.092Z,84.50
2023-04-08T07:00:00.686Z,85.00
2023-04-08T07:02:27.977Z,83.70
2023-04-08T07:04:55.089Z,84.00
2023-04-08T07:07:24.251Z,81.20
2023-04-08T07:09:51.800Z,78.90
2023-04-08T07:12:18.828Z,77.70
2023-04-08T07:14:45.780Z,78.50
2023-04-08T07:17:12.818Z,79.80
2023-04-08T07:19:39.747Z,81.50
2023-04-08T07:22:06.688Z,79.00
2023-04-08T07:24:34.461Z,78.10
2023-04-08T07:27:01.521Z,76.40
2023-04-08T07:29:28.848Z,77.70
2023-04-08T07:31:55.913Z,78.60
2023-04-08T07:34:22.915Z,77.60
2023-04-08T07:36:49.836Z,75.40
2023-04-08T07:39:16.798Z,76.90
2023-04-08T07:41:43.759Z,76.20
2023-04-08T07:44:10.678Z,77.70
2023-04-08T07:46:39.060Z,76.20
2023-04-08T07:49:06.083Z,75.50
2023-04-08T07:51:33.636Z,75.60
2023-04-08T07:54:00.629Z,74.40
2023-04-08T07:56:27.645Z,75.40
2023-04-08T07:58:54.933Z,75.60
2023-04-08T08:01:23.705Z,75.30
2023-04-08T08:03:52.880Z,76.30
2023-04-08T08:06:20.053Z,78.70
2023-04-08T08:08:47.043Z,80.60
2023-04-08T08:11:14.084Z,85.10
2023-04-08T08:13:41.163Z,82.70
2023-04-08T08:16:11.479Z,81.10
2023-04-08T08:18:40.412Z,83.70
2023-04-08T08:21:08.111Z,83.40
2023-04-08T08:23:35.078Z,85.50
2023-04-08T08:26:06.993Z,84.80
2023-04-08T08:28:34.105Z,83.00
2023-04-08T08:31:01.062Z,82.60
2023-04-08T08:33:28.103Z,82.30
2023-04-08T08:35:56.133Z,81.90
2023-04-08T08:38:23.188Z,82.70
2023-04-08T08:40:57.166Z,82.70
2023-04-08T08:43:25.446Z,82.50
2023-04-08T08:45:52.782Z,87.00
2023-04-08T08:48:19.887Z,83.50
2023-04-08T08:50:47.032Z,82.80
2023-04-08T08:53:14.047Z,83.70
2023-04-08T08:56:05.611Z,84.00
2023-04-08T08:58:28.873Z,82.50
2023-04-08T09:00:56.047Z,81.60
2023-04-08T09:03:25.482Z,83.20
2023-04-08T09:06:00.454Z,84.30
2023-04-08T09:08:32.678Z,84.30
2023-04-08T09:11:21.889Z,83.30
2023-04-08T09:13:49.329Z,84.40
2023-04-08T09:16:18.361Z,84.00
2023-04-08T09:18:47.517Z,83.60
2023-04-08T09:21:17.124Z,83.30
2023-04-08T09:23:49.592Z,86.50
2023-04-08T09:26:24.824Z,87.60
2023-04-08T09:29:25.019Z,86.00
2023-04-08T09:32:00.353Z,84.10
2023-04-08T09:34:29.203Z,80.60
2023-04-08T09:36:56.785Z,79.80
2023-04-08T09:39:24.179Z,81.10
2023-04-08T09:41:52.592Z,80.20
2023-04-08T09:44:21.852Z,78.70
2023-04-08T09:46:52.762Z,81.50
2023-04-08T09:49:26.023Z,86.20
2023-04-08T09:52:00.894Z,83.00
2023-04-08T09:54:53.256Z,87.60
2023-04-08T09:57:35.416Z,79.60
2023-04-08T10:00:11.065Z,78.40
2023-04-08T10:02:54.172Z,78.80
2023-04-08T10:05:22.364Z,81.80
2023-04-08T10:07:50.989Z,78.60
2023-04-08T10:10:18.907Z,79.80
2023-04-08T10:12:46.258Z,78.20
2023-04-08T10:15:30.140Z,78.10
2023-04-08T10:18:20.720Z,77.60
2023-04-08T10:20:49.343Z,76.50
2023-04-08T10:23:18.186Z,75.80
2023-04-08T10:25:46.047Z,79.20
2023-04-08T10:28:18.082Z,76.60
2023-04-08T10:30:51.633Z,76.80
2023-04-08T10:33:38.456Z,76.40
2023-04-08T10:36:12.409Z,76.40
2023-04-08T10:38:40.321Z,76.30
2023-04-08T10:41:07.380Z,75.50
2023-04-08T10:43:35.249Z,76.80
2023-04-08T10:46:03.035Z,77.90
2023-04-08T10:48:30.231Z,75.80
2023-04-08T10:51:02.179Z,76.80
2023-04-08T10:53:34.728Z,76.00
2023-04-08T10:56:11.117Z,76.60
2023-04-08T10:58:55.167Z,80.40
2023-04-08T11:01:23.151Z,77.70
2023-04-08T11:03:50.868Z,78.80
2023-04-08T11:06:18.401Z,75.10
2023-04-08T11:08:45.761Z,76.20
2023-04-08T11:11:12.839Z,74.90
2023-04-08T11:13:48.725Z,74.80
2023-04-08T11:16:22.721Z,72.50
2023-04-08T11:18:51.257Z,71.80
2023-04-08T11:21:18.307Z,74.90
2023-04-08T11:23:45.420Z,77.10
2023-04-08T11:26:13.763Z,78.60
2023-04-08T11:28:40.797Z,79.70
2023-04-08T11:31:08.938Z,80.40
2023-04-08T11:33:36.491Z,79.10
2023-04-08T11:36:08.487Z,78.70
2023-04-08T11:38:41.427Z,74.70
2023-04-08T11:41:08.438Z,75.40
2023-04-08T11:43:41.061Z,76.00
2023-04-08T11:46:11.641Z,79.60
2023-04-08T11:48:39.693Z,78.50
2023-04-08T11:51:10.449Z,80.00
2023-04-08T11:53:40.092Z,77.80
2023-04-08T11:56:17.469Z,78.20
2023-04-08T11:58:44.540Z,81.60
2023-04-08T12:01:11.509Z,79.60
2023-04-08T12:03:38.670Z,78.30
2023-04-08T12:06:07.321Z,77.90
2023-04-08T12:08:34.524Z,78.10
2023-04-08T12:11:13.172Z,79.20
2023-04-08T12:13:46.277Z,80.00
2023-04-08T12:16:14.386Z,79.00
2023-04-08T12:18:41.725Z,79.00
2023-04-08T12:21:08.705Z,79.30
2023-04-08T12:23:35.658Z,77.50
2023-04-08T12:26:02.582Z,78.90
2023-04-08T12:28:29.477Z,77.80
2023-04-08T12:30:56.552Z,79.40
2023-04-08T12:33:23.471Z,77.70
2023-04-08T12:35:50.685Z,76.90
2023-04-08T12:38:17.757Z,78.20
2023-04-08T12:40:44.692Z,76.10
2023-04-08T12:43:12.824Z,79.90
2023-04-08T12:45:39.745Z,78.90
2023-04-08T12:48:06.826Z,77.00
2023-04-08T12:50:33.939Z,76.10
2023-04-08T12:53:01.089Z,78.30
2023-04-08T12:55:28.080Z,79.00
2023-04-08T12:57:55.044Z,75.00
2023-04-08T13:00:22.324Z,76.10
2023-04-08T13:02:49.343Z,74.90
2023-04-08T13:05:17.118Z,74.40
2023-04-08T13:07:46.247Z,73.70
2023-04-08T13:10:13.235Z,75.40
2023-04-08T13:12:40.681Z,74.60
2023-04-08T13:15:08.371Z,73.10
2023-04-08T13:17:35.712Z,72.80
2023-04-08T13:20:03.221Z,72.80
2023-04-08T13:22:30.376Z,74.20
2023-04-08T13:24:57.518Z,74.00
2023-04-08T13:27:24.514Z,74.40
2023-04-08T13:29:51.468Z,74.40
2023-04-08T13:32:18.404Z,74.40
2023-04-08T13:34:45.342Z,75.10
2023-04-08T13:37:12.354Z,74.10
2023-04-08T13:39:39.285Z,76.10
2023-04-08T13:42:06.275Z,77.20
2023-04-08T13:44:33.445Z,76.20
2023-04-08T13:47:00.408Z,76.90
2023-04-08T13:49:27.851Z,76.20
2023-04-08T13:51:54.799Z,76.90
2023-04-08T13:54:21.838Z,78.20
2023-04-08T13:56:49.132Z,77.30
2023-04-08T13:59:16.396Z,77.10
2023-04-08T14:01:44.687Z,77.90
2023-04-08T14:04:12.085Z,79.40
2023-04-08T14:06:39.090Z,78.50
2023-04-08T14:09:07.090Z,78.80
2023-04-08T14:11:34.033Z,79.10
2023-04-08T14:14:01.066Z,80.10
2023-04-08T14:16:29.819Z,79.50
2023-04-08T14:18:57.247Z,79.50
2023-04-08T14:21:25.068Z,79.80
2023-04-08T14:23:52.728Z,80.60
2023-04-08T14:26:19.697Z,80.30
2023-04-08T14:28:47.747Z,80.30
2023-04-08T14:31:15.766Z,80.20
2023-04-08T14:33:43.429Z,79.20
2023-04-08T14:36:11.052Z,79.50
2023-04-08T14:38:39.312Z,79.40
2023-04-08T14:41:06.396Z,79.10
2023-04-08T14:43:33.345Z,79.40
2023-04-08T14:46:00.281Z,78.80
2023-04-08T14:48:30.777Z,78.20
2023-04-08T14:50:58.210Z,76.50
2023-04-08T14:53:25.467Z,76.80
2023-04-08T14:55:52.650Z,77.20
2023-04-08T14:58:20.424Z,75.90
2023-04-08T15:00:47.819Z,74.50
2023-04-08T15:03:15.613Z,74.60
2023-04-08T15:05:45.789Z,74.30
2023-04-08T15:08:13.636Z,75.10
2023-04-08T15:10:40.604Z,74.20
2023-04-08T15:13:07.605Z,73.70
2023-04-08T15:15:34.526Z,73.90
2023-04-08T15:18:01.640Z,74.80
2023-04-08T15:20:28.564Z,74.60
2023-04-08T15:22:55.511Z,75.40
2023-04-08T15:25:22.586Z,76.20
2023-04-08T15:27:49.528Z,74.80
2023-04-08T15:30:17.307Z,75.20
2023-04-08T15:32:44.306Z,74.90
2023-04-08T15:35:11.636Z,75.00
2023-04-08T15:37:38.546Z,75.80
2023-04-08T15:40:06.156Z,74.30
2023-04-08T15:42:33.092Z,75.20
2023-04-08T15:45:00.047Z,76.00
2023-04-08T15:47:27.562Z,75.60
2023-04-08T15:49:56.064Z,76.30
2023-04-08T15:52:23.115Z,76.70
2023-04-08T15:54:50.084Z,77.70
2023-04-08T15:57:17.277Z,77.30
2023-04-08T15:59:44.270Z,77.20
2023-04-08T16:02:11.725Z,77.70
2023-04-08T16:04:39.006Z,78.30
2023-04-08T16:07:06.264Z,78.90
2023-04-08T16:09:33.214Z,79.20
2023-04-08T16:12:00.160Z,79.60
2023-04-08T16:14:27.705Z,80.50
2023-04-08T16:16:54.640Z,80.70
2023-04-08T16:19:22.252Z,80.70
2023-04-08T16:21:49.268Z,81.40
2023-04-08T16:24:16.602Z,81.70
2023-04-08T16:26:43.880Z,82.50
2023-04-08T16:29:10.927Z,83.20
2023-04-08T16:31:37.965Z,83.90
2023-04-08T16:34:05.208Z,83.80
2023-04-08T16:36:32.320Z,84.60
2023-04-08T16:38:59.362Z,85.50
2023-04-08T16:41:26.561Z,86.60
2023-04-08T16:43:53.610Z,86.60
2023-04-08T16:46:20.807Z,87.30
2023-04-08T16:48:47.802Z,88.60
2023-04-08T16:51:14.738Z,88.30
2023-04-08T16:53:42.656Z,89.80
2023-04-08T16:56:16.566Z,90.10
2023-04-08T16:58:44.074Z,90.00
2023-04-08T17:01:11.764Z,90.60
2023-04-08T17:03:38.976Z,89.70
2023-04-08T17:06:07.593Z,89.40
2023-04-08T17:08:34.697Z,89.00
2023-04-08T17:11:10.384Z,89.40
2023-04-08T17:13:42.226Z,90.10
2023-04-08T17:16:13.811Z,89.80
2023-04-08T17:18:41.368Z,90.60
2023-04-08T17:21:08.408Z,90.40
2023-04-08T17:23:35.801Z,90.70
2023-04-08T17:26:10.120Z,90.50
2023-04-08T17:28:37.223Z,90.50
2023-04-08T17:31:04.337Z,90.80
2023-04-08T17:33:31.405Z,90.40
2023-04-08T17:35:58.808Z,90.80
2023-04-08T17:38:25.780Z,91.10
2023-04-08T17:40:52.947Z,91.10
2023-04-08T17:43:19.915Z,91.30
2023-04-08T17:45:47.039Z,91.40
2023-04-08T17:48:14.013Z,91.50
2023-04-08T17:50:41.025Z,92.30
2023-04-08T17:53:08.031Z,92.80
2023-04-08T17:55:35.126Z,92.60
2023-04-08T17:58:02.344Z,92.90
2023-04-08T18:00:30.257Z,93.20
2023-04-08T18:02:57.468Z,93.60
2023-04-08T18:05:24.566Z,93.00
2023-04-08T18:07:51.597Z,93.40
2023-04-08T18:10:18.641Z,94.10
2023-04-08T18:12:45.929Z,94.20
2023-04-08T18:15:13.246Z,94.70
2023-04-08T18:17:40.305Z,94.80
2023-04-08T18:20:07.926Z,95.00
2023-04-08T18:22:37.866Z,95.00
2023-04-08T18:25:05.565Z,94.60
2023-04-08T18:27:33.524Z,94.60
2023-04-08T18:30:03.149Z,94.50
2023-04-08T18:32:30.126Z,94.60
2023-04-08T18:34:57.176Z,94.60
2023-04-08T18:37:24.271Z,94.80
2023-04-08T18:39:51.902Z,94.90
2023-04-08T18:42:18.956Z,95.10
2023-04-08T18:44:45.915Z,95.20
2023-04-08T18:47:13.251Z,95.20
2023-04-08T18:49:40.184Z,95.00
2023-04-08T18:52:08.536Z,95.40
2023-04-08T18:54:35.852Z,95.80
2023-04-08T18:57:03.068Z,96.10
2023-04-08T18:59:30.447Z,95.50
2023-04-08T19:01:57.999Z,95.60
2023-04-08T19:04:25.238Z,96.10
2023-04-08T19:06:52.385Z,96.20
2023-04-08T19:09:19.341Z,97.00
2023-04-08T19:11:46.429Z,97.20
2023-04-08T19:14:13.329Z,96.90
2023-04-08T19:16:41.626Z,97.60
2023-04-08T19:19:09.125Z,97.80
2023-04-08T19:21:37.880Z,97.90
2023-04-08T19:24:06.510Z,99.80
2023-04-08T19:26:33.969Z,98.90
2023-04-08T19:29:01.298Z,99.60
2023-04-08T19:31:28.600Z,99.90
2023-04-08T19:33:55.676Z,99.90
2023-04-08T19:36:22.753Z,99.90
2023-04-08T19:38:49.736Z,99.90
2023-04-08T19:41:16.792Z,99.90
2023-04-08T19:43:43.708Z,99.90
2023-04-08T19:46:10.749Z,99.90
2023-04-08T19:48:38.221Z,99.90
2023-04-08T19:51:05.291Z,99.90
2023-04-08T19:53:32.218Z,99.90
2023-04-08T19:56:02.892Z,99.90
2023-04-08T19:58:29.889Z,99.90
2023-04-08T20:00:56.894Z,99.90
2023-04-08T20:03:24.191Z,99.90
2023-04-08T20:05:51.320Z,99.90
2023-04-08T20:08:18.473Z,99.90
2023-04-08T20:10:46.679Z,99.90
2023-04-08T20:13:14.752Z,99.90
2023-04-08T20:15:42.183Z,99.90
2023-04-08T20:18:09.167Z,99.90
2023-04-08T20:20:36.164Z,99.90
2023-04-08T20:23:03.416Z,99.90
2023-04-08T20:25:30.668Z,99.90
2023-04-08T20:27:57.702Z,99.90
2023-04-08T20:30:24.809Z,99.90
2023-04-08T20:32:51.823Z,99.90
2023-04-08T20:35:18.893Z,99.90
2023-04-08T20:37:46.605Z,99.90
2023-04-08T20:40:13.850Z,99.90
2023-04-08T20:42:41.223Z,99.90
2023-04-08T20:45:09.036Z,99.90
2023-04-08T20:47:36.014Z,99.90
2023-04-08T20:50:03.712Z,99.90
2023-04-08T20:52:30.673Z,99.90
2023-04-08T20:54:57.735Z,99.90
2023-04-08T20:57:24.676Z,99.90
2023-04-08T20:59:51.653Z,99.90
2023-04-08T21:02:20.995Z,99.90
2023-04-08T21:04:48.376Z,99.90
2023-04-08T21:07:15.421Z,99.90
2023-04-08T21:09:42.457Z,99.90
2023-04-08T21:12:09.393Z,99.90
2023-04-08T21:14:39.077Z,99.90
2023-04-08T21:17:06.091Z,99.90
2023-04-08T21:19:33.095Z,99.90
2023-04-08T21:22:00.061Z,99.90
2023-04-08T21:24:27.277Z,99.90
2023-04-08T21:26:54.315Z,99.90
2023-04-08T21:29:21.241Z,99.90
2023-04-08T21:31:48.190Z,99.90
2023-04-08T21:34:15.756Z,99.90
2023-04-08T21:36:42.721Z,99.90
2023-04-08T21:39:09.641Z,99.90
2023-04-08T21:41:36.563Z,99.90
2023-04-08T21:44:03.599Z,99.90
2023-04-08T21:46:30.840Z,99.90
2023-04-08T21:48:57.807Z,99.90
2023-04-08T21:51:24.751Z,99.90
2023-04-08T21:53:52.216Z,99.90
2023-04-08T21:56:19.504Z,99.90
2023-04-08T21:58:46.527Z,99.90
2023-04-08T22:01:13.561Z,99.90
2023-04-08T22:03:40.624Z,99.90
2023-04-08T22:06:12.662Z,99.90
2023-04-08T22:08:43.559Z,99.90
2023-04-08T22:11:10.500Z,99.90
2023-04-08T22:13:37.439Z,99.90
2023-04-08T22:16:04.527Z,99.90
2023-04-08T22:18:31.509Z,99.90
2023-04-08T22:20:58.443Z,99.90
2023-04-08T22:23:25.444Z,99.90
2023-04-08T22:25:52.513Z,99.90
2023-04-08T22:28:19.563Z,99.90
2023-04-08T22:30:46.556Z,99.90
2023-04-08T22:33:13.523Z,99.90
2023-04-08T22:35:40.692Z,99.90
2023-04-08T22:38:07.574Z,99.90
2023-04-08T22:40:37.360Z,99.90
2023-04-08T22:43:04.333Z,99.90
2023-04-08T22:45:31.474Z,99.90
2023-04-08T22:47:58.453Z,99.90
2023-04-08T22:50:25.704Z,99.90
2023-04-08T22:52:52.686Z,99.90
2023-04-08T22:55:19.630Z,99.90
2023-04-08T22:57:46.657Z,99.90
2023-04-08T23:00:13.925Z,99.90
2023-04-08T23:02:40.959Z,99.90
2023-04-08T23:05:08.433Z,99.90
2023-04-08T23:07:35.508Z,99.90
2023-04-08T23:10:02.603Z,99.90
2023-04-08T23:12:29.520Z,99.90
2023-04-08T23:14:56.535Z,99.90
2023-04-08T23:17:23.575Z,99.90
2023-04-08T23:19:50.647Z,99.90
2023-04-08T23:22:17.587Z,99.90
2023-04-08T23:24:44.536Z,99.90
2023-04-08T23:27:11.515Z,99.90
2023-04-08T23:29:38.454Z,99.90
2023-04-08T23:32:05.704Z,99.90
2023-04-08T23:34:37.262Z,99.90
2023-04-08T23:37:04.524Z,99.90
2023-04-08T23:39:32.156Z,99.90
2023-04-08T23:41:59.469Z,99.90
2023-04-08T23:44:26.469Z,99.90
2023-04-08T23:46:53.541Z,99.90
2023-04-08T23:49:20.634Z,99.90
2023-04-08T23:51:47.600Z,99.90
2023-04-08T23:54:14.486Z,99.90
2023-04-08T23:56:41.821Z,99.90
2023-04-08T23:59:08.837Z,99.90
